sensor_id;sensor_type;location;lat;lon;timestamp;P1;durP1;ratioP1;P2;durP2;ratioP2
10132;SDS011;5106;50.926;7.080;2023-12-20T00:01:34;9.07;;;7.80;;
10132;SDS011;5106;50.926;7.080;2023-12-20T00:04:00;9.60;;;7.90;;
10132;SDS011;5106;50.926;7.080;2023-12-20T00:06:26;10.10;;;8.03;;
10132;SDS011;5106;50.926;7.080;2023-12-20T00:08:52;9.87;;;8.33;;
10132;SDS011;5106;50.926;7.080;2023-12-20T00:11:18;9.10;;;8.03;;
10132;SDS011;5106;50.926;7.080;2023-12-20T00:13:44;8.83;;;7.77;;
10132;SDS011;5106;50.926;7.080;2023-12-20T00:16:09;9.77;;;8.20;;
10132;SDS011;5106;50.926;7.080;2023-12-20T00:18:35;10.00;;;8.17;;
10132;SDS011;5106;50.926;7.080;2023-12-20T00:21:00;10.17;;;8.00;;
10132;SDS011;5106;50.926;7.080;2023-12-20T00:23:26;9.80;;;8.63;;
10132;SDS011;5106;50.926;7.080;2023-12-20T00:25:51;10.77;;;8.40;;
10132;SDS011;5106;50.926;7.080;2023-12-20T00:28:17;10.57;;;8.23;;
10132;SDS011;5106;50.926;7.080;2023-12-20T00:30:43;11.77;;;8.77;;
10132;SDS011;5106;50.926;7.080;2023-12-20T00:33:08;10.40;;;9.13;;
10132;SDS011;5106;50.926;7.080;2023-12-20T00:35:34;13.47;;;9.37;;
10132;SDS011;5106;50.926;7.080;2023-12-20T00:38:00;10.57;;;8.17;;
10132;SDS011;5106;50.926;7.080;2023-12-20T00:40:26;10.03;;;8.83;;
10132;SDS011;5106;50.926;7.080;2023-12-20T00:42:52;10.23;;;8.47;;
10132;SDS011;5106;50.926;7.080;2023-12-20T00:45:17;9.80;;;7.50;;
10132;SDS011;5106;50.926;7.080;2023-12-20T00:47:43;8.57;;;7.10;;
10132;SDS011;5106;50.926;7.080;2023-12-20T00:50:09;8.17;;;6.33;;
10132;SDS011;5106;50.926;7.080;2023-12-20T00:52:34;8.87;;;6.90;;
10132;SDS011;5106;50.926;7.080;2023-12-20T00:55:00;8.40;;;6.40;;
10132;SDS011;5106;50.926;7.080;2023-12-20T00:57:26;8.50;;;6.00;;
10132;SDS011;5106;50.926;7.080;2023-12-20T00:59:51;7.43;;;5.90;;
10132;SDS011;5106;50.926;7.080;2023-12-20T01:02:17;6.63;;;5.17;;
10132;SDS011;5106;50.926;7.080;2023-12-20T01:04:43;6.53;;;5.33;;
10132;SDS011;5106;50.926;7.080;2023-12-20T01:07:08;9.13;;;5.50;;
10132;SDS011;5106;50.926;7.080;2023-12-20T01:09:34;6.83;;;5.43;;
10132;SDS011;5106;50.926;7.080;2023-12-20T01:11:59;8.70;;;5.20;;
10132;SDS011;5106;50.926;7.080;2023-12-20T01:14:25;6.03;;;4.70;;
10132;SDS011;5106;50.926;7.080;2023-12-20T01:16:50;8.43;;;5.20;;
10132;SDS011;5106;50.926;7.080;2023-12-20T01:19:16;7.17;;;5.43;;
10132;SDS011;5106;50.926;7.080;2023-12-20T01:21:42;10.90;;;5.20;;
10132;SDS011;5106;50.926;7.080;2023-12-20T01:24:07;5.80;;;4.20;;
10132;SDS011;5106;50.926;7.080;2023-12-20T01:26:33;8.10;;;4.30;;
10132;SDS011;5106;50.926;7.080;2023-12-20T01:28:58;5.03;;;4.27;;
10132;SDS011;5106;50.926;7.080;2023-12-20T01:31:24;6.67;;;4.03;;
10132;SDS011;5106;50.926;7.080;2023-12-20T01:33:49;5.83;;;3.90;;
10132;SDS011;5106;50.926;7.080;2023-12-20T01:36:15;5.90;;;3.87;;
10132;SDS011;5106;50.926;7.080;2023-12-20T01:38:41;6.83;;;3.90;;
10132;SDS011;5106;50.926;7.080;2023-12-20T01:41:06;5.80;;;3.87;;
10132;SDS011;5106;50.926;7.080;2023-12-20T01:43:32;5.23;;;3.57;;
10132;SDS011;5106;50.926;7.080;2023-12-20T01:45:57;5.20;;;3.60;;
10132;SDS011;5106;50.926;7.080;2023-12-20T01:48:24;8.30;;;4.10;;
10132;SDS011;5106;50.926;7.080;2023-12-20T01:50:51;11.83;;;5.00;;
10132;SDS011;5106;50.926;7.080;2023-12-20T01:53:17;8.87;;;4.77;;
10132;SDS011;5106;50.926;7.080;2023-12-20T01:55:46;8.23;;;5.47;;
10132;SDS011;5106;50.926;7.080;2023-12-20T01:58:13;9.07;;;5.60;;
10132;SDS011;5106;50.926;7.080;2023-12-20T02:00:55;10.07;;;7.37;;
10132;SDS011;5106;50.926;7.080;2023-12-20T02:03:22;12.07;;;8.07;;
10132;SDS011;5106;50.926;7.080;2023-12-20T02:05:47;14.33;;;8.90;;
10132;SDS011;5106;50.926;7.080;2023-12-20T02:08:13;10.93;;;8.23;;
10132;SDS011;5106;50.926;7.080;2023-12-20T02:10:39;14.70;;;8.77;;
10132;SDS011;5106;50.926;7.080;2023-12-20T02:13:05;15.03;;;9.50;;
10132;SDS011;5106;50.926;7.080;2023-12-20T02:15:31;14.20;;;9.17;;
10132;SDS011;5106;50.926;7.080;2023-12-20T02:17:57;15.10;;;9.53;;
10132;SDS011;5106;50.926;7.080;2023-12-20T02:20:22;14.20;;;9.83;;
10132;SDS011;5106;50.926;7.080;2023-12-20T02:22:48;12.03;;;9.17;;
10132;SDS011;5106;50.926;7.080;2023-12-20T02:25:13;16.83;;;10.10;;
10132;SDS011;5106;50.926;7.080;2023-12-20T02:27:39;14.83;;;9.83;;
10132;SDS011;5106;50.926;7.080;2023-12-20T02:30:05;12.33;;;8.90;;
10132;SDS011;5106;50.926;7.080;2023-12-20T02:32:31;16.77;;;10.10;;
10132;SDS011;5106;50.926;7.080;2023-12-20T02:34:57;14.63;;;8.93;;
10132;SDS011;5106;50.926;7.080;2023-12-20T02:37:23;12.93;;;7.97;;
10132;SDS011;5106;50.926;7.080;2023-12-20T02:39:48;15.63;;;7.27;;
10132;SDS011;5106;50.926;7.080;2023-12-20T02:42:14;13.53;;;6.70;;
10132;SDS011;5106;50.926;7.080;2023-12-20T02:44:39;11.53;;;6.83;;
10132;SDS011;5106;50.926;7.080;2023-12-20T02:47:05;11.03;;;6.63;;
10132;SDS011;5106;50.926;7.080;2023-12-20T02:49:31;13.63;;;6.00;;
10132;SDS011;5106;50.926;7.080;2023-12-20T02:51:56;10.73;;;5.00;;
10132;SDS011;5106;50.926;7.080;2023-12-20T02:54:22;10.50;;;5.30;;
10132;SDS011;5106;50.926;7.080;2023-12-20T02:56:47;10.53;;;4.80;;
10132;SDS011;5106;50.926;7.080;2023-12-20T02:59:13;11.50;;;4.17;;
10132;SDS011;5106;50.926;7.080;2023-12-20T03:01:43;11.27;;;4.23;;
10132;SDS011;5106;50.926;7.080;2023-12-20T03:04:10;9.17;;;4.10;;
10132;SDS011;5106;50.926;7.080;2023-12-20T03:06:36;10.40;;;3.87;;
10132;SDS011;5106;50.926;7.080;2023-12-20T03:09:02;7.73;;;3.70;;
10132;SDS011;5106;50.926;7.080;2023-12-20T03:11:27;9.20;;;3.53;;
10132;SDS011;5106;50.926;7.080;2023-12-20T03:13:53;11.03;;;3.20;;
10132;SDS011;5106;50.926;7.080;2023-12-20T03:16:19;6.60;;;2.93;;
10132;SDS011;5106;50.926;7.080;2023-12-20T03:18:45;7.07;;;2.53;;
10132;SDS011;5106;50.926;7.080;2023-12-20T03:21:10;7.30;;;2.70;;
10132;SDS011;5106;50.926;7.080;2023-12-20T03:23:36;11.57;;;2.90;;
10132;SDS011;5106;50.926;7.080;2023-12-20T03:26:01;11.87;;;2.97;;
10132;SDS011;5106;50.926;7.080;2023-12-20T03:28:28;10.50;;;3.03;;
10132;SDS011;5106;50.926;7.080;2023-12-20T03:30:54;9.33;;;3.17;;
10132;SDS011;5106;50.926;7.080;2023-12-20T03:33:20;7.00;;;2.60;;
10132;SDS011;5106;50.926;7.080;2023-12-20T03:35:46;8.27;;;2.53;;
10132;SDS011;5106;50.926;7.080;2023-12-20T03:38:17;6.10;;;2.27;;
10132;SDS011;5106;50.926;7.080;2023-12-20T03:40:43;7.90;;;2.23;;
10132;SDS011;5106;50.926;7.080;2023-12-20T03:43:08;12.30;;;2.80;;
10132;SDS011;5106;50.926;7.080;2023-12-20T03:45:34;8.87;;;2.53;;
10132;SDS011;5106;50.926;7.080;2023-12-20T03:48:00;7.30;;;2.30;;
10132;SDS011;5106;50.926;7.080;2023-12-20T03:50:26;8.13;;;3.03;;
10132;SDS011;5106;50.926;7.080;2023-12-20T03:52:52;8.27;;;2.47;;
10132;SDS011;5106;50.926;7.080;2023-12-20T03:55:17;9.63;;;2.67;;
10132;SDS011;5106;50.926;7.080;2023-12-20T03:57:43;5.87;;;2.33;;
10132;SDS011;5106;50.926;7.080;2023-12-20T04:00:09;11.93;;;2.47;;
10132;SDS011;5106;50.926;7.080;2023-12-20T04:02:44;7.10;;;3.03;;
10132;SDS011;5106;50.926;7.080;2023-12-20T04:05:10;11.20;;;2.57;;
10132;SDS011;5106;50.926;7.080;2023-12-20T04:07:36;10.47;;;3.10;;
10132;SDS011;5106;50.926;7.080;2023-12-20T04:10:02;9.53;;;2.93;;
10132;SDS011;5106;50.926;7.080;2023-12-20T04:12:28;11.50;;;2.70;;
10132;SDS011;5106;50.926;7.080;2023-12-20T04:14:56;5.97;;;2.13;;
10132;SDS011;5106;50.926;7.080;2023-12-20T04:17:22;12.77;;;3.20;;
10132;SDS011;5106;50.926;7.080;2023-12-20T04:19:48;13.90;;;3.27;;
10132;SDS011;5106;50.926;7.080;2023-12-20T04:22:14;10.67;;;3.00;;
10132;SDS011;5106;50.926;7.080;2023-12-20T04:24:40;14.63;;;2.90;;
10132;SDS011;5106;50.926;7.080;2023-12-20T04:27:07;9.17;;;3.13;;
10132;SDS011;5106;50.926;7.080;2023-12-20T04:29:33;8.73;;;2.57;;
10132;SDS011;5106;50.926;7.080;2023-12-20T04:31:58;8.10;;;2.50;;
10132;SDS011;5106;50.926;7.080;2023-12-20T04:34:24;8.73;;;2.70;;
10132;SDS011;5106;50.926;7.080;2023-12-20T04:36:50;10.17;;;3.20;;
10132;SDS011;5106;50.926;7.080;2023-12-20T04:39:15;6.17;;;3.07;;
10132;SDS011;5106;50.926;7.080;2023-12-20T04:41:41;8.87;;;2.77;;
10132;SDS011;5106;50.926;7.080;2023-12-20T04:44:06;10.93;;;3.20;;
10132;SDS011;5106;50.926;7.080;2023-12-20T04:46:32;8.60;;;3.23;;
10132;SDS011;5106;50.926;7.080;2023-12-20T04:48:57;8.57;;;3.10;;
10132;SDS011;5106;50.926;7.080;2023-12-20T04:51:23;11.67;;;3.37;;
10132;SDS011;5106;50.926;7.080;2023-12-20T04:53:49;15.43;;;3.60;;
10132;SDS011;5106;50.926;7.080;2023-12-20T04:56:14;13.80;;;3.97;;
10132;SDS011;5106;50.926;7.080;2023-12-20T04:58:40;9.03;;;3.30;;
10132;SDS011;5106;50.926;7.080;2023-12-20T05:01:08;8.30;;;3.07;;
10132;SDS011;5106;50.926;7.080;2023-12-20T05:03:34;10.33;;;3.27;;
10132;SDS011;5106;50.926;7.080;2023-12-20T05:06:00;10.07;;;3.20;;
10132;SDS011;5106;50.926;7.080;2023-12-20T05:08:25;12.10;;;3.13;;
10132;SDS011;5106;50.926;7.080;2023-12-20T05:10:54;10.23;;;3.13;;
10132;SDS011;5106;50.926;7.080;2023-12-20T05:13:20;11.93;;;3.20;;
10132;SDS011;5106;50.926;7.080;2023-12-20T05:15:45;15.87;;;3.70;;
10132;SDS011;5106;50.926;7.080;2023-12-20T05:18:11;8.30;;;3.67;;
10132;SDS011;5106;50.926;7.080;2023-12-20T05:20:37;9.33;;;3.77;;
10132;SDS011;5106;50.926;7.080;2023-12-20T05:23:03;12.37;;;4.67;;
10132;SDS011;5106;50.926;7.080;2023-12-20T05:25:29;7.93;;;3.83;;
10132;SDS011;5106;50.926;7.080;2023-12-20T05:27:54;11.37;;;3.67;;
10132;SDS011;5106;50.926;7.080;2023-12-20T05:30:21;11.93;;;4.10;;
10132;SDS011;5106;50.926;7.080;2023-12-20T05:32:46;10.53;;;3.93;;
10132;SDS011;5106;50.926;7.080;2023-12-20T05:35:12;8.70;;;3.87;;
10132;SDS011;5106;50.926;7.080;2023-12-20T05:37:38;11.23;;;3.20;;
10132;SDS011;5106;50.926;7.080;2023-12-20T05:40:03;10.87;;;3.67;;
10132;SDS011;5106;50.926;7.080;2023-12-20T05:42:29;12.50;;;3.80;;
10132;SDS011;5106;50.926;7.080;2023-12-20T05:44:55;8.53;;;3.60;;
10132;SDS011;5106;50.926;7.080;2023-12-20T05:47:20;11.73;;;4.20;;
10132;SDS011;5106;50.926;7.080;2023-12-20T05:49:46;12.27;;;4.20;;
10132;SDS011;5106;50.926;7.080;2023-12-20T05:52:11;13.50;;;4.10;;
10132;SDS011;5106;50.926;7.080;2023-12-20T05:54:37;13.37;;;4.77;;
10132;SDS011;5106;50.926;7.080;2023-12-20T05:57:03;10.60;;;3.63;;
10132;SDS011;5106;50.926;7.080;2023-12-20T05:59:29;7.93;;;4.27;;
10132;SDS011;5106;50.926;7.080;2023-12-20T06:01:54;13.67;;;3.90;;
10132;SDS011;5106;50.926;7.080;2023-12-20T06:04:20;11.77;;;4.47;;
10132;SDS011;5106;50.926;7.080;2023-12-20T06:06:45;13.10;;;4.83;;
10132;SDS011;5106;50.926;7.080;2023-12-20T06:09:11;12.10;;;4.00;;
10132;SDS011;5106;50.926;7.080;2023-12-20T06:11:37;9.30;;;3.67;;
10132;SDS011;5106;50.926;7.080;2023-12-20T06:14:02;8.77;;;4.10;;
10132;SDS011;5106;50.926;7.080;2023-12-20T06:16:28;15.93;;;4.53;;
10132;SDS011;5106;50.926;7.080;2023-12-20T06:18:53;10.13;;;3.53;;
10132;SDS011;5106;50.926;7.080;2023-12-20T06:21:19;8.93;;;3.43;;
10132;SDS011;5106;50.926;7.080;2023-12-20T06:23:45;11.63;;;4.13;;
10132;SDS011;5106;50.926;7.080;2023-12-20T06:26:10;12.77;;;3.97;;
10132;SDS011;5106;50.926;7.080;2023-12-20T06:28:36;13.17;;;4.07;;
10132;SDS011;5106;50.926;7.080;2023-12-20T06:31:02;11.10;;;4.00;;
10132;SDS011;5106;50.926;7.080;2023-12-20T06:33:28;11.53;;;4.43;;
10132;SDS011;5106;50.926;7.080;2023-12-20T06:35:56;11.37;;;4.23;;
10132;SDS011;5106;50.926;7.080;2023-12-20T06:38:27;11.33;;;4.43;;
10132;SDS011;5106;50.926;7.080;2023-12-20T06:40:53;12.47;;;4.20;;
10132;SDS011;5106;50.926;7.080;2023-12-20T06:43:19;12.57;;;4.17;;
10132;SDS011;5106;50.926;7.080;2023-12-20T06:45:44;12.30;;;4.47;;
10132;SDS011;5106;50.926;7.080;2023-12-20T06:48:10;14.10;;;4.90;;
10132;SDS011;5106;50.926;7.080;2023-12-20T06:50:38;10.63;;;4.13;;
10132;SDS011;5106;50.926;7.080;2023-12-20T06:53:05;13.63;;;3.73;;
10132;SDS011;5106;50.926;7.080;2023-12-20T06:55:32;12.10;;;4.10;;
10132;SDS011;5106;50.926;7.080;2023-12-20T06:57:58;12.60;;;3.67;;
10132;SDS011;5106;50.926;7.080;2023-12-20T07:00:24;12.10;;;4.30;;
10132;SDS011;5106;50.926;7.080;2023-12-20T07:02:50;14.43;;;4.27;;
10132;SDS011;5106;50.926;7.080;2023-12-20T07:05:16;10.93;;;3.80;;
10132;SDS011;5106;50.926;7.080;2023-12-20T07:07:44;14.83;;;4.83;;
10132;SDS011;5106;50.926;7.080;2023-12-20T07:10:13;15.20;;;4.10;;
10132;SDS011;5106;50.926;7.080;2023-12-20T07:12:39;7.13;;;3.60;;
10132;SDS011;5106;50.926;7.080;2023-12-20T07:15:04;13.50;;;4.00;;
10132;SDS011;5106;50.926;7.080;2023-12-20T07:17:33;13.00;;;3.50;;
10132;SDS011;5106;50.926;7.080;2023-12-20T07:19:59;11.87;;;4.10;;
10132;SDS011;5106;50.926;7.080;2023-12-20T07:22:28;9.20;;;3.37;;
10132;SDS011;5106;50.926;7.080;2023-12-20T07:24:57;11.93;;;3.87;;
10132;SDS011;5106;50.926;7.080;2023-12-20T07:27:24;16.33;;;4.20;;
10132;SDS011;5106;50.926;7.080;2023-12-20T07:29:49;11.83;;;4.10;;
10132;SDS011;5106;50.926;7.080;2023-12-20T07:32:15;11.53;;;3.50;;
10132;SDS011;5106;50.926;7.080;2023-12-20T07:34:40;9.07;;;3.20;;
10132;SDS011;5106;50.926;7.080;2023-12-20T07:37:06;12.50;;;3.70;;
10132;SDS011;5106;50.926;7.080;2023-12-20T07:39:35;11.57;;;3.10;;
10132;SDS011;5106;50.926;7.080;2023-12-20T07:42:01;11.90;;;4.17;;
10132;SDS011;5106;50.926;7.080;2023-12-20T07:44:26;12.37;;;4.27;;
10132;SDS011;5106;50.926;7.080;2023-12-20T07:46:52;14.03;;;3.93;;
10132;SDS011;5106;50.926;7.080;2023-12-20T07:49:18;6.67;;;3.57;;
10132;SDS011;5106;50.926;7.080;2023-12-20T07:51:44;11.60;;;3.80;;
10132;SDS011;5106;50.926;7.080;2023-12-20T07:54:10;10.47;;;3.57;;
10132;SDS011;5106;50.926;7.080;2023-12-20T07:56:35;14.40;;;4.03;;
10132;SDS011;5106;50.926;7.080;2023-12-20T07:59:01;9.70;;;3.43;;
10132;SDS011;5106;50.926;7.080;2023-12-20T08:01:27;10.40;;;4.37;;
10132;SDS011;5106;50.926;7.080;2023-12-20T08:03:52;14.57;;;3.67;;
10132;SDS011;5106;50.926;7.080;2023-12-20T08:06:18;8.47;;;3.50;;
10132;SDS011;5106;50.926;7.080;2023-12-20T08:08:43;13.20;;;4.13;;
10132;SDS011;5106;50.926;7.080;2023-12-20T08:11:09;12.23;;;4.10;;
10132;SDS011;5106;50.926;7.080;2023-12-20T08:13:34;10.47;;;4.17;;
10132;SDS011;5106;50.926;7.080;2023-12-20T08:16:00;11.80;;;4.20;;
10132;SDS011;5106;50.926;7.080;2023-12-20T08:18:28;9.93;;;3.83;;
10132;SDS011;5106;50.926;7.080;2023-12-20T08:20:54;12.30;;;3.67;;
10132;SDS011;5106;50.926;7.080;2023-12-20T08:23:19;13.67;;;4.00;;
10132;SDS011;5106;50.926;7.080;2023-12-20T08:25:48;9.53;;;3.77;;
10132;SDS011;5106;50.926;7.080;2023-12-20T08:28:14;10.53;;;3.50;;
10132;SDS011;5106;50.926;7.080;2023-12-20T08:30:40;9.70;;;3.80;;
10132;SDS011;5106;50.926;7.080;2023-12-20T08:33:06;14.27;;;4.20;;
10132;SDS011;5106;50.926;7.080;2023-12-20T08:35:36;10.70;;;4.33;;
10132;SDS011;5106;50.926;7.080;2023-12-20T08:38:01;11.87;;;3.73;;
10132;SDS011;5106;50.926;7.080;2023-12-20T08:40:29;9.57;;;3.53;;
10132;SDS011;5106;50.926;7.080;2023-12-20T08:42:55;12.30;;;3.77;;
10132;SDS011;5106;50.926;7.080;2023-12-20T08:45:20;11.70;;;3.80;;
10132;SDS011;5106;50.926;7.080;2023-12-20T08:47:46;9.63;;;3.30;;
10132;SDS011;5106;50.926;7.080;2023-12-20T08:50:11;9.03;;;3.10;;
10132;SDS011;5106;50.926;7.080;2023-12-20T08:52:37;11.40;;;3.37;;
10132;SDS011;5106;50.926;7.080;2023-12-20T08:55:03;11.20;;;3.23;;
10132;SDS011;5106;50.926;7.080;2023-12-20T08:57:29;8.90;;;3.50;;
10132;SDS011;5106;50.926;7.080;2023-12-20T08:59:56;13.77;;;3.63;;
10132;SDS011;5106;50.926;7.080;2023-12-20T09:02:22;11.13;;;3.23;;
10132;SDS011;5106;50.926;7.080;2023-12-20T09:04:48;9.90;;;3.60;;
10132;SDS011;5106;50.926;7.080;2023-12-20T09:07:23;12.93;;;3.63;;
10132;SDS011;5106;50.926;7.080;2023-12-20T09:09:49;9.27;;;3.13;;
10132;SDS011;5106;50.926;7.080;2023-12-20T09:12:15;10.60;;;3.50;;
10132;SDS011;5106;50.926;7.080;2023-12-20T09:14:40;9.67;;;3.60;;
10132;SDS011;5106;50.926;7.080;2023-12-20T09:17:06;11.30;;;3.17;;
10132;SDS011;5106;50.926;7.080;2023-12-20T09:19:34;9.20;;;3.20;;
10132;SDS011;5106;50.926;7.080;2023-12-20T09:21:59;10.77;;;3.20;;
10132;SDS011;5106;50.926;7.080;2023-12-20T09:24:25;9.27;;;3.17;;
10132;SDS011;5106;50.926;7.080;2023-12-20T09:26:51;11.00;;;3.20;;
10132;SDS011;5106;50.926;7.080;2023-12-20T09:29:17;15.13;;;3.93;;
10132;SDS011;5106;50.926;7.080;2023-12-20T09:31:43;11.77;;;3.10;;
10132;SDS011;5106;50.926;7.080;2023-12-20T09:34:11;11.33;;;3.40;;
10132;SDS011;5106;50.926;7.080;2023-12-20T09:36:37;7.63;;;2.70;;
10132;SDS011;5106;50.926;7.080;2023-12-20T09:39:05;8.80;;;3.40;;
10132;SDS011;5106;50.926;7.080;2023-12-20T09:41:31;9.57;;;3.33;;
10132;SDS011;5106;50.926;7.080;2023-12-20T09:44:02;9.70;;;3.00;;
10132;SDS011;5106;50.926;7.080;2023-12-20T09:46:28;8.43;;;3.03;;
10132;SDS011;5106;50.926;7.080;2023-12-20T09:48:58;11.27;;;3.67;;
10132;SDS011;5106;50.926;7.080;2023-12-20T09:51:26;9.47;;;2.93;;
10132;SDS011;5106;50.926;7.080;2023-12-20T09:53:54;9.50;;;2.80;;
10132;SDS011;5106;50.926;7.080;2023-12-20T09:56:21;15.07;;;3.13;;
10132;SDS011;5106;50.926;7.080;2023-12-20T09:58:48;11.10;;;3.40;;
10132;SDS011;5106;50.926;7.080;2023-12-20T10:01:14;11.10;;;3.37;;
10132;SDS011;5106;50.926;7.080;2023-12-20T10:03:42;12.20;;;3.20;;
10132;SDS011;5106;50.926;7.080;2023-12-20T10:06:08;10.10;;;3.20;;
10132;SDS011;5106;50.926;7.080;2023-12-20T10:08:34;10.13;;;3.50;;
10132;SDS011;5106;50.926;7.080;2023-12-20T10:11:00;9.57;;;2.77;;
10132;SDS011;5106;50.926;7.080;2023-12-20T10:13:28;10.97;;;3.00;;
10132;SDS011;5106;50.926;7.080;2023-12-20T10:15:54;11.73;;;3.80;;
10132;SDS011;5106;50.926;7.080;2023-12-20T10:18:20;6.33;;;2.50;;
10132;SDS011;5106;50.926;7.080;2023-12-20T10:20:46;12.07;;;2.77;;
10132;SDS011;5106;50.926;7.080;2023-12-20T10:23:12;10.37;;;3.73;;
10132;SDS011;5106;50.926;7.080;2023-12-20T10:25:40;7.70;;;3.00;;
10132;SDS011;5106;50.926;7.080;2023-12-20T10:28:13;8.67;;;2.73;;
10132;SDS011;5106;50.926;7.080;2023-12-20T10:30:44;11.17;;;2.70;;
10132;SDS011;5106;50.926;7.080;2023-12-20T10:33:09;9.73;;;2.77;;
10132;SDS011;5106;50.926;7.080;2023-12-20T10:35:35;13.47;;;2.83;;
10132;SDS011;5106;50.926;7.080;2023-12-20T10:38:03;9.87;;;3.03;;
10132;SDS011;5106;50.926;7.080;2023-12-20T10:40:30;8.53;;;2.57;;
10132;SDS011;5106;50.926;7.080;2023-12-20T10:42:56;6.97;;;2.93;;
10132;SDS011;5106;50.926;7.080;2023-12-20T10:45:23;14.60;;;2.83;;
10132;SDS011;5106;50.926;7.080;2023-12-20T10:47:49;11.47;;;3.03;;
10132;SDS011;5106;50.926;7.080;2023-12-20T10:50:15;9.20;;;2.70;;
10132;SDS011;5106;50.926;7.080;2023-12-20T10:52:41;15.10;;;3.33;;
10132;SDS011;5106;50.926;7.080;2023-12-20T10:55:09;9.00;;;2.43;;
10132;SDS011;5106;50.926;7.080;2023-12-20T10:57:36;7.03;;;2.80;;
10132;SDS011;5106;50.926;7.080;2023-12-20T11:00:01;8.57;;;3.00;;
10132;SDS011;5106;50.926;7.080;2023-12-20T11:02:33;11.23;;;2.47;;
10132;SDS011;5106;50.926;7.080;2023-12-20T11:08:03;8.77;;;2.83;;
10132;SDS011;5106;50.926;7.080;2023-12-20T11:10:49;11.10;;;2.90;;
10132;SDS011;5106;50.926;7.080;2023-12-20T11:15:46;9.43;;;2.60;;
10132;SDS011;5106;50.926;7.080;2023-12-20T11:18:12;11.70;;;3.00;;
10132;SDS011;5106;50.926;7.080;2023-12-20T11:20:38;10.73;;;2.67;;
10132;SDS011;5106;50.926;7.080;2023-12-20T11:23:05;7.73;;;2.67;;
10132;SDS011;5106;50.926;7.080;2023-12-20T11:28:20;10.43;;;3.30;;
10132;SDS011;5106;50.926;7.080;2023-12-20T11:30:52;11.90;;;2.93;;
10132;SDS011;5106;50.926;7.080;2023-12-20T11:33:21;6.83;;;2.57;;
10132;SDS011;5106;50.926;7.080;2023-12-20T11:35:47;5.73;;;2.20;;
10132;SDS011;5106;50.926;7.080;2023-12-20T11:38:13;10.43;;;2.80;;
10132;SDS011;5106;50.926;7.080;2023-12-20T11:40:39;8.73;;;2.67;;
10132;SDS011;5106;50.926;7.080;2023-12-20T11:43:09;9.63;;;2.60;;
10132;SDS011;5106;50.926;7.080;2023-12-20T11:45:35;9.03;;;2.93;;
10132;SDS011;5106;50.926;7.080;2023-12-20T11:48:01;7.03;;;2.97;;
10132;SDS011;5106;50.926;7.080;2023-12-20T11:50:28;12.83;;;3.00;;
10132;SDS011;5106;50.926;7.080;2023-12-20T11:52:55;11.43;;;3.60;;
10132;SDS011;5106;50.926;7.080;2023-12-20T11:55:21;9.83;;;2.63;;
10132;SDS011;5106;50.926;7.080;2023-12-20T11:57:49;10.07;;;2.50;;
10132;SDS011;5106;50.926;7.080;2023-12-20T12:00:16;6.13;;;2.50;;
10132;SDS011;5106;50.926;7.080;2023-12-20T12:02:42;8.37;;;3.10;;
10132;SDS011;5106;50.926;7.080;2023-12-20T12:05:08;13.10;;;3.10;;
10132;SDS011;5106;50.926;7.080;2023-12-20T12:07:34;8.17;;;2.27;;
10132;SDS011;5106;50.926;7.080;2023-12-20T12:10:00;10.57;;;2.80;;
10132;SDS011;5106;50.926;7.080;2023-12-20T12:12:26;7.90;;;2.70;;
10132;SDS011;5106;50.926;7.080;2023-12-20T12:14:55;9.13;;;2.70;;
10132;SDS011;5106;50.926;7.080;2023-12-20T12:17:25;8.90;;;3.13;;
10132;SDS011;5106;50.926;7.080;2023-12-20T12:19:52;14.27;;;2.67;;
10132;SDS011;5106;50.926;7.080;2023-12-20T12:22:30;9.67;;;3.03;;
10132;SDS011;5106;50.926;7.080;2023-12-20T12:24:58;6.63;;;2.80;;
10132;SDS011;5106;50.926;7.080;2023-12-20T12:27:26;8.33;;;2.83;;
10132;SDS011;5106;50.926;7.080;2023-12-20T12:30:02;8.27;;;2.70;;
10132;SDS011;5106;50.926;7.080;2023-12-20T12:32:29;10.10;;;2.60;;
10132;SDS011;5106;50.926;7.080;2023-12-20T12:34:55;10.73;;;3.50;;
10132;SDS011;5106;50.926;7.080;2023-12-20T12:37:22;9.23;;;2.60;;
10132;SDS011;5106;50.926;7.080;2023-12-20T12:39:49;12.83;;;3.10;;
10132;SDS011;5106;50.926;7.080;2023-12-20T12:42:15;8.93;;;3.13;;
10132;SDS011;5106;50.926;7.080;2023-12-20T12:44:40;7.27;;;2.30;;
10132;SDS011;5106;50.926;7.080;2023-12-20T12:47:06;11.30;;;2.83;;
10132;SDS011;5106;50.926;7.080;2023-12-20T12:49:32;9.17;;;3.33;;
10132;SDS011;5106;50.926;7.080;2023-12-20T12:51:58;9.17;;;2.67;;
10132;SDS011;5106;50.926;7.080;2023-12-20T12:54:24;6.23;;;2.73;;
10132;SDS011;5106;50.926;7.080;2023-12-20T12:56:49;7.40;;;2.67;;
10132;SDS011;5106;50.926;7.080;2023-12-20T12:59:15;9.30;;;2.70;;
10132;SDS011;5106;50.926;7.080;2023-12-20T13:01:41;8.90;;;2.70;;
10132;SDS011;5106;50.926;7.080;2023-12-20T13:04:07;6.93;;;2.60;;
10132;SDS011;5106;50.926;7.080;2023-12-20T13:06:36;7.30;;;2.93;;
10132;SDS011;5106;50.926;7.080;2023-12-20T13:09:02;10.93;;;2.77;;
10132;SDS011;5106;50.926;7.080;2023-12-20T13:11:29;6.57;;;2.70;;
10132;SDS011;5106;50.926;7.080;2023-12-20T13:13:56;6.50;;;2.50;;
10132;SDS011;5106;50.926;7.080;2023-12-20T13:16:23;9.07;;;3.20;;
10132;SDS011;5106;50.926;7.080;2023-12-20T13:18:49;9.33;;;3.23;;
10132;SDS011;5106;50.926;7.080;2023-12-20T13:21:15;7.30;;;3.37;;
10132;SDS011;5106;50.926;7.080;2023-12-20T13:23:41;9.03;;;2.67;;
10132;SDS011;5106;50.926;7.080;2023-12-20T13:26:07;11.43;;;3.53;;
10132;SDS011;5106;50.926;7.080;2023-12-20T13:28:33;7.33;;;3.23;;
10132;SDS011;5106;50.926;7.080;2023-12-20T13:30:58;10.07;;;3.20;;
10132;SDS011;5106;50.926;7.080;2023-12-20T13:33:24;9.53;;;3.03;;
10132;SDS011;5106;50.926;7.080;2023-12-20T13:35:50;13.90;;;3.30;;
10132;SDS011;5106;50.926;7.080;2023-12-20T13:38:16;10.57;;;3.10;;
10132;SDS011;5106;50.926;7.080;2023-12-20T13:40:41;7.00;;;3.27;;
10132;SDS011;5106;50.926;7.080;2023-12-20T13:43:07;8.77;;;3.10;;
10132;SDS011;5106;50.926;7.080;2023-12-20T13:45:34;10.73;;;3.20;;
10132;SDS011;5106;50.926;7.080;2023-12-20T13:47:59;6.87;;;2.93;;
10132;SDS011;5106;50.926;7.080;2023-12-20T13:50:25;9.83;;;3.03;;
10132;SDS011;5106;50.926;7.080;2023-12-20T13:52:51;8.03;;;2.90;;
10132;SDS011;5106;50.926;7.080;2023-12-20T13:55:16;8.23;;;3.20;;
10132;SDS011;5106;50.926;7.080;2023-12-20T13:57:42;6.33;;;2.73;;
10132;SDS011;5106;50.926;7.080;2023-12-20T14:00:08;7.90;;;3.37;;
10132;SDS011;5106;50.926;7.080;2023-12-20T14:02:39;8.23;;;3.13;;
10132;SDS011;5106;50.926;7.080;2023-12-20T14:05:06;9.03;;;2.73;;
10132;SDS011;5106;50.926;7.080;2023-12-20T14:07:33;9.27;;;2.87;;
10132;SDS011;5106;50.926;7.080;2023-12-20T14:09:58;12.47;;;3.10;;
10132;SDS011;5106;50.926;7.080;2023-12-20T14:12:24;9.53;;;3.40;;
10132;SDS011;5106;50.926;7.080;2023-12-20T14:14:50;7.57;;;2.90;;
10132;SDS011;5106;50.926;7.080;2023-12-20T14:17:16;9.33;;;2.97;;
10132;SDS011;5106;50.926;7.080;2023-12-20T14:19:43;7.43;;;2.80;;
10132;SDS011;5106;50.926;7.080;2023-12-20T14:22:08;5.03;;;2.10;;
10132;SDS011;5106;50.926;7.080;2023-12-20T14:24:34;8.37;;;2.80;;
10132;SDS011;5106;50.926;7.080;2023-12-20T14:27:01;6.70;;;2.57;;
10132;SDS011;5106;50.926;7.080;2023-12-20T14:29:26;6.90;;;2.60;;
10132;SDS011;5106;50.926;7.080;2023-12-20T14:31:52;5.77;;;2.53;;
10132;SDS011;5106;50.926;7.080;2023-12-20T14:34:18;6.43;;;3.00;;
10132;SDS011;5106;50.926;7.080;2023-12-20T14:36:43;6.27;;;2.20;;
10132;SDS011;5106;50.926;7.080;2023-12-20T14:39:09;5.87;;;2.60;;
10132;SDS011;5106;50.926;7.080;2023-12-20T14:41:38;6.97;;;2.30;;
10132;SDS011;5106;50.926;7.080;2023-12-20T14:44:05;7.10;;;2.63;;
10132;SDS011;5106;50.926;7.080;2023-12-20T14:46:31;5.80;;;2.30;;
10132;SDS011;5106;50.926;7.080;2023-12-20T14:48:57;11.27;;;2.83;;
10132;SDS011;5106;50.926;7.080;2023-12-20T14:51:22;6.30;;;2.47;;
10132;SDS011;5106;50.926;7.080;2023-12-20T14:53:49;4.43;;;2.47;;
10132;SDS011;5106;50.926;7.080;2023-12-20T14:56:15;7.70;;;2.70;;
10132;SDS011;5106;50.926;7.080;2023-12-20T14:58:41;10.50;;;2.93;;